Terminal Aerodrome Forecast
Issued by NWS Chicago, IL

Home | Current Version | Previous Version | Graphics & Text | Print | Product List | Glossary On
Versions: 1 2 3 4 5 6 7 8 9 10 11 12 13 14 15 16 17 18 19 20 21 22 23 24 25 26 27 28 29 30 31 32 33 34 35
000
FTUS43 KLOT 262339
TAFRFD
TAF
KRFD 262339Z 2700/2724 23015G22KT P6SM SCT035 BKN150
     FM270200 23012KT P6SM SCT030
      TEMPO 2702/2705 5SM -SHRA
     FM270500 23009KT P6SM SCT035 BKN250
     FM270900 23010KT 5SM BR BKN015
     FM271300 26010KT P6SM SCT025=

USA.gov is the U.S. government's official web portal to all federal, state and local government web resources and services.